CheckWX is a tool to help pilots better visualize weather data.  It is not intended as a substitute for an official pre-flight weather briefing.

09:48:18 UTC

KRHV METAR
Reid-Hillview of Santa Clara County Airport
San Jose, California, USA
Current

4 hours ago

KRHV 200547Z 00000KT 10SM SKC 08/03 A3012 RMK LAST
Observed
Feb-20 @ 05:47 UTC
Visibility
16,093 meters
Flight Rules
VFR
Cloud Levels
  • Clear skies
Temperature
C / 46°F
Dewpoint
C / 37°F
Humidity
71%
Altimeter
30.12" Hg
Pressure
1020.02 hPa
Previous

5 hours ago

KRHV 200447Z 00000KT 10SM SKC 09/03 A3013
Observed
Feb-20 @ 04:47 UTC
Visibility
16,093 meters
Flight Rules
VFR
Cloud Levels
  • Clear skies
Temperature
C / 48°F
Dewpoint
C / 37°F
Humidity
66%
Altimeter
30.13" Hg
Pressure
1020.32 hPa
Previous

6 hours ago

KRHV 200347Z 37006KT 10SM SKC 09/03 A3015
Observed
Feb-20 @ 03:47 UTC
Wind
  • Variable at 6 KTS
Visibility
16,093 meters
Flight Rules
VFR
Cloud Levels
  • Clear skies
Temperature
C / 48°F
Dewpoint
C / 37°F
Humidity
66%
Altimeter
30.15" Hg
Pressure
1021.02 hPa